Time;durP1;ratioP1;P1;durP2;ratioP2;P2;SDS_P1;SDS_P2;PMS_P1;PMS_P2;Temp;Humidity;BMP_temperature;BMP_pressure;BME280_temperature;BME280_humidity;BME280_pressure;Samples;Min_cycle;Max_cycle;Signal;HPM_P1;HPM_P2
2024/02/29 00:01:50;;;;;;;25.43;14.87;;;0.90;99.90;;;;;;5073792;28;20683;-56
2024/02/29 00:04:16;;;;;;;29.07;14.63;;;0.90;99.90;;;;;;5077060;28;20170;-52
2024/02/29 00:06:42;;;;;;;23.63;14.13;;;0.80;99.90;;;;;;5059155;28;20712;-51
2024/02/29 00:09:10;;;;;;;25.37;15.20;;;0.80;99.90;;;;;;5075887;28;20514;-52
2024/02/29 00:11:36;;;;;;;20.23;15.53;;;0.80;99.90;;;;;;5066611;28;20170;-55
2024/02/29 00:14:01;;;;;;;31.83;17.77;;;0.80;99.90;;;;;;5073545;28;20495;-51
2024/02/29 00:16:27;;;;;;;27.17;14.97;;;0.80;99.90;;;;;;5073935;28;20170;-54
2024/02/29 00:18:53;;;;;;;26.60;15.73;;;0.80;99.90;;;;;;5060124;28;20193;-53
2024/02/29 00:21:18;;;;;;;26.80;16.53;;;0.80;99.90;;;;;;5082383;28;20257;-52
2024/02/29 00:23:44;;;;;;;22.13;15.33;;;0.70;99.90;;;;;;5078672;28;20170;-54
2024/02/29 00:26:13;;;;;;;24.53;15.07;;;0.70;99.90;;;;;;5070682;28;20547;-55
2024/02/29 00:28:38;;;;;;;35.30;15.60;;;0.70;99.90;;;;;;5062951;28;20214;-53
2024/02/29 00:31:04;;;;;;;27.83;16.00;;;0.70;99.90;;;;;;5068725;28;20838;-54
2024/02/29 00:33:29;;;;;;;27.77;14.43;;;0.70;99.90;;;;;;5083342;28;20231;-55
2024/02/29 00:35:55;;;;;;;27.00;16.23;;;0.70;99.90;;;;;;5087800;28;20253;-56
2024/02/29 00:38:20;;;;;;;25.43;14.43;;;0.70;99.90;;;;;;5080534;28;20193;-56
2024/02/29 00:40:46;;;;;;;38.33;15.00;;;0.60;99.90;;;;;;5062805;28;20670;-54
2024/02/29 00:43:12;;;;;;;25.57;15.47;;;0.60;99.90;;;;;;5057975;28;20211;-56
2024/02/29 00:45:37;;;;;;;25.23;16.73;;;0.60;99.90;;;;;;5075500;28;20408;-55
2024/02/29 00:48:03;;;;;;;40.80;17.87;;;0.60;99.90;;;;;;5079059;28;20210;-54
2024/02/29 00:50:29;;;;;;;24.67;14.07;;;0.60;99.90;;;;;;5068445;28;20586;-58
2024/02/29 00:52:55;;;;;;;32.87;17.83;;;0.60;99.90;;;;;;5073914;28;20421;-56
2024/02/29 00:55:20;;;;;;;27.73;16.57;;;0.60;99.90;;;;;;5079964;28;20254;-56
2024/02/29 00:57:49;;;;;;;29.53;17.10;;;0.60;99.90;;;;;;5082798;28;20201;-55
2024/02/29 01:00:15;;;;;;;33.97;19.43;;;0.60;99.90;;;;;;5058274;28;20175;-55
2024/02/29 01:02:40;;;;;;;28.13;15.43;;;0.60;99.90;;;;;;5068217;28;20552;-54
2024/02/29 01:05:07;;;;;;;24.20;15.43;;;0.60;99.90;;;;;;5067214;28;20413;-57
2024/02/29 01:07:32;;;;;;;28.80;16.90;;;0.60;99.90;;;;;;5080287;28;20210;-50
2024/02/29 01:09:58;;;;;;;29.50;14.23;;;0.60;99.90;;;;;;5068928;28;20862;-53
2024/02/29 01:12:24;;;;;;;33.83;18.50;;;0.50;99.90;;;;;;5063961;28;20175;-53
2024/02/29 01:14:50;;;;;;;26.50;15.97;;;0.60;99.90;;;;;;5075334;28;20827;-56
2024/02/29 01:17:16;;;;;;;33.33;17.50;;;0.50;99.90;;;;;;5074944;28;20194;-57
2024/02/29 01:19:41;;;;;;;28.97;15.40;;;0.50;99.90;;;;;;5070153;28;20250;-56
2024/02/29 01:22:07;;;;;;;29.77;16.70;;;0.60;99.90;;;;;;5079932;28;20260;-53
2024/02/29 01:24:32;;;;;;;27.07;16.70;;;0.50;99.90;;;;;;5066681;28;20637;-52
2024/02/29 01:26:59;;;;;;;31.30;16.93;;;0.50;99.90;;;;;;5045276;28;20584;-54
2024/02/29 01:29:25;;;;;;;31.47;16.17;;;0.50;99.90;;;;;;5067622;28;20167;-54
2024/02/29 01:31:50;;;;;;;32.40;16.90;;;0.50;99.90;;;;;;5068441;28;20423;-55
2024/02/29 01:34:17;;;;;;;31.77;17.27;;;0.50;99.90;;;;;;5079667;28;20174;-55
2024/02/29 01:36:44;;;;;;;34.20;17.43;;;0.40;99.90;;;;;;5072658;28;20174;-52
2024/02/29 01:39:09;;;;;;;33.23;18.27;;;0.50;99.90;;;;;;5063553;28;20921;-56
2024/02/29 01:41:35;;;;;;;33.70;19.20;;;0.40;99.90;;;;;;5065512;28;20552;-55
2024/02/29 01:44:01;;;;;;;44.23;18.67;;;0.50;99.90;;;;;;5068195;28;20742;-55
2024/02/29 01:46:27;;;;;;;29.70;16.53;;;0.40;99.90;;;;;;5063027;28;20178;-55
2024/02/29 01:48:54;;;;;;;30.77;18.53;;;0.40;99.90;;;;;;5074634;28;20222;-56
2024/02/29 01:51:21;;;;;;;39.93;19.47;;;0.40;99.90;;;;;;5067706;28;20417;-56
2024/02/29 01:53:47;;;;;;;35.57;17.00;;;0.40;99.90;;;;;;5068729;28;20409;-57
2024/02/29 01:56:13;;;;;;;29.40;16.80;;;0.40;99.90;;;;;;5063302;28;20783;-56
2024/02/29 01:58:40;;;;;;;38.30;17.80;;;0.40;99.90;;;;;;5074490;28;20566;-57
2024/02/29 02:01:06;;;;;;;33.80;19.13;;;0.40;99.90;;;;;;5069705;28;20497;-56
2024/02/29 02:03:32;;;;;;;38.83;21.90;;;0.40;99.90;;;;;;5065997;28;20562;-52
2024/02/29 02:05:58;;;;;;;38.63;18.73;;;0.30;99.90;;;;;;5062746;28;20173;-57
2024/02/29 02:08:26;;;;;;;37.70;20.20;;;0.30;99.90;;;;;;5069536;28;20425;-52
2024/02/29 02:10:52;;;;;;;30.37;17.17;;;0.30;99.90;;;;;;5056985;28;20262;-58
2024/02/29 02:13:17;;;;;;;37.57;18.77;;;0.30;99.90;;;;;;5055956;28;20504;-51
2024/02/29 02:15:43;;;;;;;37.40;19.30;;;0.30;99.90;;;;;;5055287;28;20183;-52
2024/02/29 02:18:09;;;;;;;35.13;18.93;;;0.30;99.90;;;;;;5058962;28;20191;-58
2024/02/29 02:20:35;;;;;;;32.40;18.13;;;0.40;99.90;;;;;;5061844;28;20657;-54
2024/02/29 02:23:00;;;;;;;34.43;17.73;;;0.30;99.90;;;;;;5058423;28;20254;-53
2024/02/29 02:25:26;;;;;;;39.37;21.77;;;0.30;99.90;;;;;;5054432;28;20429;-55
2024/02/29 02:27:51;;;;;;;40.73;20.80;;;0.30;99.90;;;;;;5054303;28;20233;-54
2024/02/29 02:30:17;;;;;;;35.43;18.70;;;0.30;99.90;;;;;;5058275;28;20628;-55
2024/02/29 02:32:43;;;;;;;34.20;17.80;;;0.30;99.90;;;;;;5060421;28;20210;-56
2024/02/29 02:35:09;;;;;;;33.00;19.57;;;0.30;99.90;;;;;;5060067;28;20653;-57
2024/02/29 02:37:36;;;;;;;36.90;17.97;;;0.30;99.90;;;;;;5051639;28;20545;-52
2024/02/29 02:40:04;;;;;;;39.67;19.73;;;0.30;99.90;;;;;;5051944;28;20707;-51
2024/02/29 02:42:30;;;;;;;46.63;23.00;;;0.30;99.90;;;;;;5051611;28;20465;-54
2024/02/29 02:44:56;;;;;;;38.30;22.77;;;0.20;99.90;;;;;;5051707;28;20524;-54
2024/02/29 02:47:22;;;;;;;32.33;17.77;;;0.20;99.90;;;;;;5051417;28;20445;-55
2024/02/29 02:49:47;;;;;;;40.23;20.60;;;0.20;99.90;;;;;;5051698;28;20164;-57
2024/02/29 02:52:13;;;;;;;40.50;19.73;;;0.30;99.90;;;;;;5051600;28;20171;-54
2024/02/29 02:54:39;;;;;;;35.33;19.60;;;0.30;99.90;;;;;;5051454;28;20186;-54
2024/02/29 02:57:05;;;;;;;47.93;21.77;;;0.30;99.90;;;;;;5051166;28;20178;-53
2024/02/29 02:59:30;;;;;;;40.30;20.57;;;0.30;99.90;;;;;;5081499;22;20589;-60
2024/02/29 03:01:56;;;;;;;38.03;21.30;;;0.30;99.90;;;;;;5069898;28;20208;-59
2024/02/29 03:04:21;;;;;;;42.13;22.00;;;0.30;99.90;;;;;;5061900;28;20552;-60
2024/02/29 03:06:47;;;;;;;34.20;19.27;;;0.20;99.90;;;;;;5070140;28;20234;-61
2024/02/29 03:09:13;;;;;;;50.40;21.33;;;0.20;99.90;;;;;;5070033;28;20320;-60
2024/02/29 03:11:38;;;;;;;46.77;23.67;;;0.20;99.90;;;;;;5070106;28;20186;-60
2024/02/29 03:14:04;;;;;;;38.83;20.47;;;0.30;99.90;;;;;;5069975;28;20186;-61
2024/02/29 03:16:31;;;;;;;37.53;21.67;;;0.30;99.90;;;;;;5069909;28;20633;-60
2024/02/29 03:18:56;;;;;;;47.47;22.23;;;0.20;99.90;;;;;;5069973;28;20197;-61
2024/02/29 03:21:22;;;;;;;42.30;22.00;;;0.30;99.90;;;;;;5069427;28;20422;-60
2024/02/29 03:23:47;;;;;;;44.67;21.70;;;0.30;99.90;;;;;;5053507;28;20620;-59
2024/02/29 03:26:13;;;;;;;41.57;20.73;;;0.20;99.90;;;;;;5069739;28;20604;-60
2024/02/29 03:28:39;;;;;;;37.77;19.13;;;0.20;99.90;;;;;;5069581;28;20335;-61
2024/02/29 03:31:13;;;;;;;45.90;21.30;;;0.20;99.90;;;;;;5070077;28;20413;-60
2024/02/29 03:33:39;;;;;;;33.27;19.33;;;0.20;99.90;;;;;;5069528;28;20230;-61
2024/02/29 03:36:05;;;;;;;39.03;20.43;;;0.20;99.90;;;;;;5069583;28;20451;-61
2024/02/29 03:38:31;;;;;;;50.57;22.30;;;0.20;99.90;;;;;;5069325;28;20401;-61
2024/02/29 03:40:57;;;;;;;45.13;21.20;;;0.10;99.90;;;;;;5065383;28;20582;-60
2024/02/29 03:43:22;;;;;;;42.30;20.17;;;0.10;99.90;;;;;;5069519;28;20205;-61
2024/02/29 03:45:48;;;;;;;41.50;22.70;;;0.20;99.90;;;;;;5069404;28;20498;-61
2024/02/29 03:48:14;;;;;;;36.93;21.33;;;0.10;99.90;;;;;;5069569;28;20228;-61
2024/02/29 03:50:40;;;;;;;44.60;22.03;;;0.20;99.90;;;;;;5069208;28;20202;-61
2024/02/29 03:53:05;;;;;;;44.00;20.87;;;0.10;99.90;;;;;;5069697;28;20178;-59
2024/02/29 03:55:32;;;;;;;45.53;21.43;;;0.10;99.90;;;;;;5069478;28;20771;-61
2024/02/29 03:57:57;;;;;;;41.07;21.53;;;0.10;99.90;;;;;;5069722;28;20248;-58
2024/02/29 04:00:23;;;;;;;53.40;23.97;;;0.10;99.90;;;;;;5069408;28;20845;-61
2024/02/29 04:02:48;;;;;;;41.13;24.07;;;0.10;99.90;;;;;;5065988;28;20289;-60
2024/02/29 04:05:14;;;;;;;39.20;21.67;;;0.10;99.90;;;;;;5064517;28;20204;-61
2024/02/29 04:07:43;;;;;;;45.40;21.47;;;0.10;99.90;;;;;;5069272;28;20193;-61
2024/02/29 04:10:10;;;;;;;39.97;20.60;;;0.10;99.90;;;;;;5070864;28;20191;-61
2024/02/29 04:12:36;;;;;;;39.83;21.23;;;0.10;99.90;;;;;;5072934;28;20922;-61
2024/02/29 04:15:01;;;;;;;45.70;23.00;;;0.10;99.90;;;;;;5073086;28;20432;-60
2024/02/29 04:17:31;;;;;;;48.53;24.23;;;0.10;99.90;;;;;;5072817;28;20244;-59
2024/02/29 04:19:56;;;;;;;45.43;24.13;;;0.10;99.90;;;;;;5073197;28;20568;-61
2024/02/29 04:22:23;;;;;;;42.40;23.83;;;0.10;99.90;;;;;;5073314;28;20452;-60
2024/02/29 04:24:49;;;;;;;42.03;21.33;;;0.10;99.90;;;;;;5073074;28;20205;-56
2024/02/29 04:27:14;;;;;;;42.03;21.87;;;0.10;99.90;;;;;;5073063;28;20424;-61
2024/02/29 04:29:40;;;;;;;44.13;21.50;;;0.10;99.90;;;;;;5072610;28;20451;-60
2024/02/29 04:32:07;;;;;;;48.07;24.33;;;0.10;99.90;;;;;;5073577;28;20519;-60
2024/02/29 04:34:33;;;;;;;46.53;22.70;;;0.10;99.90;;;;;;5073096;28;20186;-58
2024/02/29 04:36:59;;;;;;;47.90;24.70;;;0.10;99.90;;;;;;5072945;28;21028;-61
2024/02/29 04:39:24;;;;;;;48.67;22.30;;;0.10;99.90;;;;;;5072923;28;20472;-61
2024/02/29 04:41:50;;;;;;;48.53;22.07;;;0.10;99.90;;;;;;5072445;28;20668;-56
2024/02/29 04:44:16;;;;;;;50.40;24.30;;;0.10;99.90;;;;;;5072822;28;20281;-60
2024/02/29 04:46:41;;;;;;;49.77;23.27;;;0.10;99.90;;;;;;5072530;28;20243;-60
2024/02/29 04:49:07;;;;;;;49.57;26.30;;;0.10;99.90;;;;;;5072932;28;20608;-60
2024/02/29 04:51:33;;;;;;;46.20;23.23;;;0.10;99.90;;;;;;5072349;28;20190;-57
2024/02/29 04:53:59;;;;;;;51.17;24.27;;;0.10;99.90;;;;;;5072375;28;20185;-59
2024/02/29 04:56:25;;;;;;;48.97;24.00;;;0.10;99.90;;;;;;5072320;28;20435;-58
2024/02/29 04:58:51;;;;;;;45.73;23.00;;;0.10;99.90;;;;;;5072978;28;20702;-60
2024/02/29 05:01:16;;;;;;;43.50;22.17;;;0.10;99.90;;;;;;5072387;28;20420;-59
2024/02/29 05:03:42;;;;;;;48.70;22.70;;;0.10;99.90;;;;;;5068263;28;20187;-60
2024/02/29 05:06:13;;;;;;;42.50;24.47;;;0.00;99.90;;;;;;5072047;28;20424;-58
2024/02/29 05:08:39;;;;;;;47.93;24.03;;;0.00;99.90;;;;;;5071691;28;20417;-60
2024/02/29 05:11:11;;;;;;;60.37;26.97;;;0.10;99.90;;;;;;5071790;28;20423;-59
2024/02/29 05:13:37;;;;;;;45.70;25.20;;;0.00;99.90;;;;;;5071408;28;20503;-58
2024/02/29 05:16:06;;;;;;;48.00;24.53;;;0.00;99.90;;;;;;5071615;28;20424;-60
2024/02/29 05:18:31;;;;;;;47.37;24.60;;;0.00;99.90;;;;;;5063402;28;20798;-59
2024/02/29 05:20:57;;;;;;;51.00;21.60;;;0.00;99.90;;;;;;5072121;28;20425;-59
2024/02/29 05:23:23;;;;;;;46.10;24.97;;;0.00;99.90;;;;;;5072301;28;20416;-60
2024/02/29 05:25:49;;;;;;;55.73;22.50;;;0.10;99.90;;;;;;5072763;28;20266;-59
2024/02/29 05:28:15;;;;;;;52.70;26.07;;;0.10;99.90;;;;;;5072785;28;20292;-60
2024/02/29 05:30:42;;;;;;;48.27;23.20;;;0.00;99.90;;;;;;5071678;28;20451;-60
2024/02/29 05:33:08;;;;;;;45.73;20.27;;;0.00;99.90;;;;;;5071440;28;20460;-60
2024/02/29 05:35:34;;;;;;;56.07;26.73;;;0.10;99.90;;;;;;5071475;28;20477;-60
2024/02/29 05:38:00;;;;;;;47.40;24.97;;;0.10;99.90;;;;;;5071635;28;20182;-59
2024/02/29 05:40:28;;;;;;;46.50;24.50;;;0.10;99.90;;;;;;5071616;28;20463;-60
2024/02/29 05:42:54;;;;;;;52.40;25.20;;;0.10;99.90;;;;;;5071297;28;20420;-60
2024/02/29 05:45:20;;;;;;;58.67;25.53;;;0.10;99.90;;;;;;5071414;28;20423;-60
2024/02/29 05:47:46;;;;;;;52.27;24.03;;;0.10;99.90;;;;;;5071182;28;20186;-60
2024/02/29 05:50:11;;;;;;;51.93;23.40;;;0.10;99.90;;;;;;5071543;28;20213;-58
2024/02/29 05:52:37;;;;;;;53.43;25.80;;;0.10;99.90;;;;;;5071100;28;20205;-59
2024/02/29 05:55:03;;;;;;;55.07;25.20;;;0.10;99.90;;;;;;5070922;28;20696;-60
2024/02/29 05:57:31;;;;;;;45.23;26.27;;;0.10;99.90;;;;;;5070907;28;20217;-60
2024/02/29 06:00:00;;;;;;;52.80;24.57;;;0.10;99.90;;;;;;5054436;28;20471;-60
2024/02/29 06:02:26;;;;;;;47.23;22.20;;;0.10;99.90;;;;;;5070785;28;20427;-60
2024/02/29 06:04:51;;;;;;;54.20;24.23;;;0.10;99.90;;;;;;5069248;28;20919;-59
2024/02/29 06:07:17;;;;;;;63.10;25.53;;;0.20;99.90;;;;;;5070971;28;20420;-59
2024/02/29 06:09:43;;;;;;;60.40;25.83;;;0.20;99.90;;;;;;5070373;28;20316;-59
2024/02/29 06:12:08;;;;;;;46.17;26.07;;;0.20;99.90;;;;;;5070610;28;20205;-60
2024/02/29 06:14:34;;;;;;;50.83;26.03;;;0.20;99.90;;;;;;5070318;28;20189;-60
2024/02/29 06:17:01;;;;;;;49.10;25.83;;;0.30;99.90;;;;;;5070791;28;20204;-60
2024/02/29 06:19:27;;;;;;;61.30;26.30;;;0.30;99.90;;;;;;5070577;28;20526;-60
2024/02/29 06:21:52;;;;;;;47.83;25.87;;;0.40;99.90;;;;;;5070323;28;20601;-59
2024/02/29 06:24:18;;;;;;;58.67;27.10;;;0.40;99.90;;;;;;5070517;28;20993;-60
2024/02/29 06:26:47;;;;;;;51.57;25.73;;;0.50;99.90;;;;;;5070681;28;20628;-60
2024/02/29 06:29:13;;;;;;;46.63;22.83;;;0.50;99.90;;;;;;5070393;28;20444;-60
2024/02/29 06:31:41;;;;;;;53.13;28.33;;;0.60;99.90;;;;;;5070036;28;20459;-57
2024/02/29 06:34:07;;;;;;;50.30;24.20;;;0.60;99.90;;;;;;5070002;28;20182;-59
2024/02/29 06:36:33;;;;;;;43.33;22.73;;;0.70;99.90;;;;;;5070640;28;20420;-58
2024/02/29 06:38:59;;;;;;;47.00;23.20;;;0.70;99.90;;;;;;5053993;28;20775;-60
2024/02/29 06:41:24;;;;;;;43.10;21.70;;;0.70;99.90;;;;;;5070238;28;20624;-59
2024/02/29 06:43:50;;;;;;;48.47;24.10;;;0.80;99.90;;;;;;5051728;28;20615;-57
2024/02/29 06:46:16;;;;;;;42.23;21.00;;;0.90;99.90;;;;;;5058502;28;20186;-57
2024/02/29 06:48:42;;;;;;;47.83;21.17;;;1.00;99.90;;;;;;5070480;28;20220;-59
2024/02/29 06:51:08;;;;;;;47.53;23.17;;;1.00;99.90;;;;;;5052267;28;20910;-59
2024/02/29 06:53:33;;;;;;;47.67;23.93;;;1.20;99.90;;;;;;5070462;28;20216;-60
2024/02/29 06:55:59;;;;;;;42.57;22.17;;;1.30;99.90;;;;;;5069935;28;20189;-59
2024/02/29 06:58:25;;;;;;;43.73;20.67;;;1.40;99.90;;;;;;5073758;28;20250;-59
2024/02/29 07:00:50;;;;;;;40.03;20.80;;;1.50;99.90;;;;;;5071086;28;20210;-58
2024/02/29 07:03:16;;;;;;;40.73;21.57;;;1.70;99.90;;;;;;5070149;28;20420;-60
2024/02/29 07:05:42;;;;;;;44.90;22.60;;;2.10;99.90;;;;;;5070649;28;20243;-60
2024/02/29 07:08:09;;;;;;;40.70;21.17;;;2.40;99.90;;;;;;5070300;28;20178;-59
2024/02/29 07:10:35;;;;;;;35.57;20.77;;;2.50;99.90;;;;;;5069754;28;20202;-58
2024/02/29 07:13:00;;;;;;;36.63;20.07;;;2.70;99.90;;;;;;5053428;28;20793;-59
2024/02/29 07:15:26;;;;;;;33.70;19.10;;;3.00;99.90;;;;;;5069820;28;20236;-59
2024/02/29 07:17:51;;;;;;;31.50;19.20;;;3.20;99.90;;;;;;5069785;28;20261;-60
2024/02/29 07:20:17;;;;;;;26.80;17.40;;;3.50;99.90;;;;;;5069861;28;20648;-59
2024/02/29 07:22:45;;;;;;;30.67;16.97;;;3.80;99.90;;;;;;5069780;28;20697;-60
2024/02/29 07:25:12;;;;;;;31.53;18.60;;;3.70;99.90;;;;;;5069787;28;20197;-60
2024/02/29 07:27:40;;;;;;;26.47;16.20;;;4.20;99.90;;;;;;5069832;28;20466;-58
2024/02/29 07:30:08;;;;;;;28.10;18.03;;;4.00;99.90;;;;;;5070425;28;20452;-60
2024/02/29 07:32:35;;;;;;;28.10;19.03;;;4.40;99.90;;;;;;5066933;28;20448;-60
2024/02/29 07:35:00;;;;;;;24.63;16.43;;;4.20;99.90;;;;;;5070039;28;20413;-60
2024/02/29 07:37:28;;;;;;;29.97;16.63;;;4.60;99.90;;;;;;5070634;28;20439;-60
2024/02/29 07:39:54;;;;;;;23.80;16.17;;;4.10;99.90;;;;;;5069833;28;20206;-61
2024/02/29 07:42:19;;;;;;;31.13;16.80;;;4.10;99.90;;;;;;5069845;28;20432;-60
2024/02/29 07:44:45;;;;;;;29.57;16.83;;;4.90;99.90;;;;;;5072020;28;20476;-60
2024/02/29 07:47:10;;;;;;;28.87;16.03;;;5.40;99.90;;;;;;5073575;28;20219;-61
2024/02/29 07:49:36;;;;;;;21.57;16.43;;;5.60;99.90;;;;;;5073371;28;20214;-59
2024/02/29 07:52:02;;;;;;;26.50;16.03;;;6.10;99.90;;;;;;5052449;28;20204;-59
2024/02/29 07:54:27;;;;;;;24.23;14.90;;;6.70;99.90;;;;;;5048782;28;20178;-57
2024/02/29 07:56:53;;;;;;;22.33;16.00;;;6.80;99.90;;;;;;5069855;28;20252;-59
2024/02/29 07:59:19;;;;;;;26.77;18.37;;;6.40;99.90;;;;;;5071262;28;20209;-59
2024/02/29 08:01:44;;;;;;;24.07;15.80;;;5.60;99.90;;;;;;5065477;28;20194;-59
2024/02/29 08:04:10;;;;;;;24.63;15.63;;;6.00;99.90;;;;;;5073048;28;20178;-60
2024/02/29 08:06:36;;;;;;;25.13;15.73;;;6.30;99.90;;;;;;5072952;28;20190;-59
2024/02/29 08:09:04;;;;;;;27.30;16.30;;;6.90;99.90;;;;;;5072846;28;20206;-60
2024/02/29 08:11:30;;;;;;;25.33;19.83;;;7.00;99.90;;;;;;5044774;28;20196;-60
2024/02/29 08:13:56;;;;;;;27.37;18.70;;;6.10;99.90;;;;;;5053181;28;20430;-60
2024/02/29 08:16:21;;;;;;;29.43;18.53;;;5.50;99.90;;;;;;5058990;28;20207;-59
2024/02/29 08:18:47;;;;;;;28.87;16.83;;;6.20;99.90;;;;;;5070405;28;20198;-59
2024/02/29 08:21:13;;;;;;;31.33;17.60;;;6.60;99.90;;;;;;5072784;28;20210;-59
2024/02/29 08:23:38;;;;;;;30.80;18.63;;;7.40;99.90;;;;;;5072792;28;20678;-60
2024/02/29 08:26:10;;;;;;;23.80;16.70;;;7.60;99.90;;;;;;5072858;28;20499;-60
2024/02/29 08:28:37;;;;;;;27.37;17.80;;;7.00;99.90;;;;;;5056124;28;20194;-60
2024/02/29 08:31:03;;;;;;;28.07;16.77;;;7.20;99.90;;;;;;5072107;28;20452;-62
2024/02/29 08:33:29;;;;;;;27.73;17.83;;;7.50;99.90;;;;;;5064259;28;20503;-59
2024/02/29 08:35:54;;;;;;;29.33;17.73;;;8.30;99.90;;;;;;5072403;28;20183;-60
2024/02/29 08:38:20;;;;;;;31.73;18.73;;;9.20;99.90;;;;;;5072896;28;20210;-60
2024/02/29 08:40:45;;;;;;;25.67;17.40;;;8.70;99.90;;;;;;5072283;28;20220;-60
2024/02/29 08:43:11;;;;;;;27.47;17.60;;;9.80;99.90;;;;;;5072486;28;20217;-60
2024/02/29 08:45:36;;;;;;;26.30;18.17;;;10.40;99.90;;;;;;5072724;28;20191;-59
2024/02/29 08:48:03;;;;;;;27.33;16.37;;;11.30;99.90;;;;;;5072306;28;20183;-60
2024/02/29 08:50:28;;;;;;;25.43;16.93;;;11.70;99.90;;;;;;5072341;28;20214;-59
2024/02/29 08:52:54;;;;;;;29.00;19.00;;;12.10;99.90;;;;;;5072290;28;20461;-60
2024/02/29 08:55:20;;;;;;;30.00;18.27;;;12.00;99.90;;;;;;5071622;28;20215;-58
2024/02/29 08:57:45;;;;;;;25.20;17.10;;;12.90;99.90;;;;;;5072207;28;20684;-60
2024/02/29 09:00:11;;;;;;;25.93;18.00;;;12.20;99.90;;;;;;5072370;28;20291;-58
2024/02/29 09:02:37;;;;;;;23.60;18.00;;;12.00;99.90;;;;;;5072695;28;20199;-60
2024/02/29 09:05:03;;;;;;;25.30;17.93;;;10.70;99.90;;;;;;5061336;28;20426;-60
2024/02/29 09:07:29;;;;;;;27.90;19.20;;;9.70;99.90;;;;;;5072360;28;20192;-60
2024/02/29 09:09:54;;;;;;;24.63;18.60;;;10.70;99.90;;;;;;5071777;28;20469;-60
2024/02/29 09:12:20;;;;;;;22.37;16.57;;;10.30;99.90;;;;;;5072051;28;20202;-59
2024/02/29 09:14:46;;;;;;;24.90;18.30;;;10.80;99.90;;;;;;5071663;28;20732;-61
2024/02/29 09:17:12;;;;;;;24.20;17.60;;;11.90;99.90;;;;;;5068285;28;20191;-60
2024/02/29 09:19:37;;;;;;;25.00;17.47;;;11.50;99.90;;;;;;5067657;28;20448;-60
2024/02/29 09:22:03;;;;;;;26.63;18.23;;;11.30;99.90;;;;;;5071901;28;20275;-60
2024/02/29 09:24:29;;;;;;;26.60;17.80;;;10.30;99.90;;;;;;5072104;28;20215;-60
2024/02/29 09:26:55;;;;;;;28.27;17.60;;;11.30;99.90;;;;;;5071875;28;20422;-60
2024/02/29 09:29:21;;;;;;;27.63;18.13;;;12.00;99.90;;;;;;5072498;28;20279;-61
2024/02/29 09:31:47;;;;;;;24.83;17.37;;;12.40;99.90;;;;;;5071420;28;20204;-61
2024/02/29 09:34:12;;;;;;;24.70;17.60;;;12.50;99.90;;;;;;5071644;28;20901;-60
2024/02/29 09:36:38;;;;;;;28.03;18.13;;;11.30;99.90;;;;;;5071738;28;20190;-61
2024/02/29 09:39:05;;;;;;;20.03;15.27;;;11.70;99.90;;;;;;5071509;28;20209;-60
2024/02/29 09:41:30;;;;;;;22.40;15.30;;;11.10;99.90;;;;;;5071914;28;20194;-61
2024/02/29 09:43:57;;;;;;;24.40;16.10;;;10.80;99.90;;;;;;5071657;28;20431;-60
2024/02/29 09:46:24;;;;;;;24.37;16.57;;;10.90;99.90;;;;;;5071467;28;20546;-58
2024/02/29 09:48:50;;;;;;;24.93;17.23;;;11.10;99.90;;;;;;5070925;28;20452;-60
2024/02/29 09:51:20;;;;;;;23.80;16.00;;;10.70;99.90;;;;;;5071339;28;20426;-58
2024/02/29 09:53:51;;;;;;;25.37;15.80;;;10.40;99.90;;;;;;5063323;28;20470;-60
2024/02/29 09:56:22;;;;;;;21.07;15.57;;;10.80;99.90;;;;;;5054667;28;20420;-60
2024/02/29 09:58:52;;;;;;;23.50;16.80;;;10.70;99.90;;;;;;5070721;28;20454;-60
2024/02/29 10:01:18;;;;;;;23.53;17.07;;;9.60;99.90;;;;;;5070794;28;20507;-60
2024/02/29 10:03:46;;;;;;;22.33;15.60;;;9.30;99.90;;;;;;5069515;28;20513;-58
2024/02/29 10:06:12;;;;;;;24.43;16.40;;;9.50;99.90;;;;;;5057249;28;20262;-59
2024/02/29 10:08:40;;;;;;;25.37;15.70;;;9.40;99.90;;;;;;5070302;28;20645;-59
2024/02/29 10:11:07;;;;;;;22.67;15.17;;;8.90;99.90;;;;;;5070667;28;20225;-58
2024/02/29 10:13:40;;;;;;;23.13;15.77;;;8.60;99.90;;;;;;5070910;28;20467;-59
2024/02/29 10:16:10;;;;;;;26.47;15.57;;;8.90;99.90;;;;;;5070552;28;20482;-60
2024/02/29 10:18:38;;;;;;;21.50;14.93;;;8.50;99.90;;;;;;5070799;28;20800;-60
2024/02/29 10:21:14;;;;;;;27.10;17.27;;;8.50;99.90;;;;;;5070443;28;20907;-63
2024/02/29 10:23:41;;;;;;;26.40;15.57;;;8.50;99.90;;;;;;5062130;28;20424;-60
2024/02/29 10:26:07;;;;;;;26.10;15.50;;;8.50;99.90;;;;;;5054595;28;20820;-59
2024/02/29 10:28:33;;;;;;;24.30;15.80;;;8.20;99.90;;;;;;5052749;28;20424;-60
2024/02/29 10:31:00;;;;;;;23.83;14.43;;;8.10;99.90;;;;;;5053505;28;20415;-59
2024/02/29 10:33:26;;;;;;;21.63;14.57;;;8.00;99.90;;;;;;5052714;28;20229;-58
2024/02/29 10:35:55;;;;;;;23.80;14.93;;;8.10;99.90;;;;;;5053496;28;20915;-60
2024/02/29 10:38:21;;;;;;;20.60;15.50;;;8.20;99.90;;;;;;5050277;28;20891;-59
2024/02/29 10:40:50;;;;;;;27.37;15.90;;;8.10;99.90;;;;;;5051567;28;20420;-59
2024/02/29 10:43:20;;;;;;;19.53;14.53;;;7.90;99.90;;;;;;5041681;28;20433;-59
2024/02/29 10:45:50;;;;;;;20.43;14.77;;;8.10;99.90;;;;;;5049132;28;20417;-60
2024/02/29 10:48:36;;;;;;;26.70;15.10;;;8.30;99.90;;;;;;5054027;28;20460;-60
2024/02/29 10:51:42;;;;;;;20.60;15.63;;;8.10;99.90;;;;;;5043513;28;20432;-60
2024/02/29 10:54:19;;;;;;;23.10;13.20;;;8.10;99.90;;;;;;5068234;28;20534;-59
2024/02/29 10:56:48;;;;;;;19.17;15.13;;;8.10;99.90;;;;;;5062524;28;20426;-59
2024/02/29 10:59:18;;;;;;;25.10;16.63;;;8.10;99.90;;;;;;5058531;28;20484;-59
2024/02/29 11:01:45;;;;;;;23.10;14.47;;;8.30;99.90;;;;;;5035261;28;20491;-60
2024/02/29 11:04:11;;;;;;;21.00;13.83;;;8.30;99.90;;;;;;5044951;28;20430;-61
2024/02/29 11:06:45;;;;;;;23.37;15.53;;;8.40;99.90;;;;;;5037437;28;20529;-55
2024/02/29 11:09:13;;;;;;;22.83;15.63;;;8.30;99.90;;;;;;5041135;28;20304;-61
2024/02/29 11:11:39;;;;;;;22.73;16.17;;;8.40;99.90;;;;;;5024754;28;20485;-58
2024/02/29 11:14:04;;;;;;;20.70;14.50;;;8.40;99.90;;;;;;5048036;28;20464;-59
2024/02/29 11:16:48;;;;;;;23.70;16.63;;;8.40;99.90;;;;;;5042549;28;20299;-61
2024/02/29 11:19:16;;;;;;;27.30;14.73;;;8.50;99.90;;;;;;5046599;28;20619;-60
2024/02/29 11:21:42;;;;;;;27.50;14.70;;;8.60;99.90;;;;;;5040707;28;20921;-60
2024/02/29 11:24:14;;;;;;;23.83;16.83;;;8.60;99.90;;;;;;5049326;28;20441;-57
2024/02/29 11:26:41;;;;;;;30.80;17.53;;;8.80;99.90;;;;;;5047760;28;20514;-60
2024/02/29 11:29:20;;;;;;;26.77;15.63;;;8.80;99.90;;;;;;5060850;28;20803;-59
2024/02/29 11:31:56;;;;;;;21.60;15.30;;;8.80;99.90;;;;;;5051421;28;20477;-58
2024/02/29 11:34:22;;;;;;;25.20;18.17;;;8.70;99.90;;;;;;5041801;28;20419;-58
2024/02/29 11:36:50;;;;;;;26.87;15.57;;;8.80;99.90;;;;;;5045442;28;20775;-59
2024/02/29 11:39:22;;;;;;;21.67;16.10;;;8.90;99.90;;;;;;5035501;28;20633;-60
2024/02/29 11:41:49;;;;;;;20.57;14.87;;;9.00;99.90;;;;;;5039254;28;20429;-59
2024/02/29 11:44:15;;;;;;;25.53;15.40;;;9.00;99.90;;;;;;5049693;28;20433;-58
2024/02/29 11:46:48;;;;;;;20.90;16.10;;;9.10;99.90;;;;;;5039977;28;20464;-59
2024/02/29 11:49:17;;;;;;;21.10;15.07;;;9.20;99.90;;;;;;5054664;28;20980;-59
2024/02/29 11:51:46;;;;;;;23.30;17.33;;;9.30;99.90;;;;;;5046282;28;20471;-59
2024/02/29 11:54:15;;;;;;;22.83;16.40;;;9.40;99.90;;;;;;5049053;28;20467;-59
2024/02/29 11:56:42;;;;;;;24.53;16.10;;;9.30;99.90;;;;;;5044823;28;20931;-60
2024/02/29 11:59:10;;;;;;;24.07;16.60;;;9.30;99.90;;;;;;5041411;28;20465;-59
2024/02/29 12:01:36;;;;;;;25.20;17.40;;;9.20;99.90;;;;;;5043835;28;20468;-58
2024/02/29 12:04:04;;;;;;;20.93;16.40;;;9.20;99.90;;;;;;5046521;28;20500;-60
2024/02/29 12:06:31;;;;;;;24.40;17.00;;;9.40;99.90;;;;;;5047606;28;20431;-59
2024/02/29 12:08:56;;;;;;;24.97;14.63;;;9.50;99.90;;;;;;5045581;28;20828;-59
2024/02/29 12:11:23;;;;;;;27.17;16.83;;;9.40;99.90;;;;;;5049710;28;20444;-59
2024/02/29 12:13:49;;;;;;;29.13;16.40;;;9.50;99.90;;;;;;5053168;28;20207;-58
2024/02/29 12:16:15;;;;;;;24.20;15.60;;;9.60;99.90;;;;;;5059873;28;20852;-54
2024/02/29 12:18:41;;;;;;;25.97;15.70;;;9.60;99.90;;;;;;5055327;28;20547;-60
2024/02/29 12:21:07;;;;;;;25.80;16.73;;;9.80;99.90;;;;;;5048862;28;20178;-60
2024/02/29 12:23:33;;;;;;;25.73;16.10;;;9.80;99.90;;;;;;5044220;28;20475;-58
2024/02/29 12:26:18;;;;;;;22.17;15.90;;;9.80;99.90;;;;;;5055695;28;20433;-58
2024/02/29 12:28:43;;;;;;;23.13;15.57;;;9.90;99.90;;;;;;5055283;28;20779;-61
2024/02/29 12:31:09;;;;;;;26.13;16.10;;;9.90;99.90;;;;;;5051829;28;20432;-59
2024/02/29 12:33:41;;;;;;;25.13;15.67;;;9.90;99.90;;;;;;5050246;28;20478;-59